Time;durP1;ratioP1;P1;durP2;ratioP2;P2;SDS_P1;SDS_P2;PMS_P1;PMS_P2;Temp;Humidity;BMP_temperature;BMP_pressure;BME280_temperature;BME280_humidity;BME280_pressure;Samples;Min_cycle;Max_cycle;Signal;HPM_P1;HPM_P2
2021/12/31 00:01:02;;;;;;;48.90;20.45;;;;;;;-2.05;100.00;99958.84;5004395;28;20089;-59
2021/12/31 00:03:52;;;;;;;47.08;19.90;;;;;;;-1.92;100.00;99967.09;5009668;28;20100;-56
2021/12/31 00:06:36;;;;;;;44.33;19.27;;;;;;;-2.11;100.00;99962.13;4978085;28;20049;-60
2021/12/31 00:09:21;;;;;;;50.50;20.38;;;;;;;-2.09;100.00;99960.44;5000144;28;20064;-61
2021/12/31 00:12:10;;;;;;;49.15;20.80;;;;;;;-1.95;100.00;99959.19;5007134;28;20048;-57
2021/12/31 00:14:54;;;;;;;43.45;19.10;;;;;;;-1.91;100.00;99941.97;5005387;28;20536;-61
2021/12/31 00:17:40;;;;;;;48.55;19.15;;;;;;;-1.93;100.00;99954.03;5005811;28;20061;-59
2021/12/31 00:20:26;;;;;;;48.97;20.40;;;;;;;-1.95;100.00;99956.59;4997195;28;20133;-58
2021/12/31 00:23:16;;;;;;;48.83;20.40;;;;;;;-2.00;100.00;99926.09;4990033;28;20366;-59
2021/12/31 00:26:01;;;;;;;52.50;20.20;;;;;;;-1.77;100.00;99953.69;4974867;28;20189;-60
2021/12/31 00:28:45;;;;;;;49.67;20.63;;;;;;;-1.68;100.00;99944.47;4985814;28;20057;-60
2021/12/31 00:31:30;;;;;;;46.88;19.02;;;;;;;-1.69;100.00;99940.09;4986160;28;20057;-52
2021/12/31 00:34:14;;;;;;;47.25;19.77;;;;;;;-2.00;100.00;99942.56;4984742;28;20084;-60
2021/12/31 00:36:58;;;;;;;41.50;19.20;;;;;;;-2.14;100.00;99937.78;4987170;28;20443;-60
2021/12/31 00:39:43;;;;;;;43.55;18.45;;;;;;;-2.10;100.00;99931.84;4985766;28;20857;-58
2021/12/31 00:42:28;;;;;;;46.30;19.23;;;;;;;-1.89;100.00;99935.13;4960561;28;20521;-57
2021/12/31 00:45:20;;;;;;;43.05;17.65;;;;;;;-1.99;100.00;99926.16;4971324;28;20053;-59
2021/12/31 00:48:06;;;;;;;41.25;17.60;;;;;;;-1.97;100.00;99914.06;4983517;28;20560;-61
2021/12/31 00:50:51;;;;;;;52.05;19.95;;;;;;;-2.12;100.00;99924.00;4986313;28;20525;-61
2021/12/31 00:53:35;;;;;;;43.72;18.67;;;;;;;-2.25;100.00;99923.56;4985651;28;20101;-65
2021/12/31 00:56:20;;;;;;;46.97;19.02;;;;;;;-2.22;100.00;99903.75;4987419;28;20590;-62
2021/12/31 00:59:05;;;;;;;44.88;18.02;;;;;;;-2.46;100.00;99897.75;4959472;28;20050;-67
2021/12/31 01:01:50;;;;;;;42.78;17.88;;;;;;;-2.25;100.00;99898.44;4971662;28;20132;-68
2021/12/31 01:04:35;;;;;;;47.83;18.00;;;;;;;-2.07;100.00;99905.94;4969364;28;20049;-62
2021/12/31 01:07:19;;;;;;;44.58;18.67;;;;;;;-1.90;100.00;99899.59;4986522;28;20096;-63
2021/12/31 01:10:05;;;;;;;45.17;19.02;;;;;;;-1.96;100.00;99884.69;4986089;28;20507;-63
2021/12/31 01:12:51;;;;;;;44.83;18.60;;;;;;;-2.05;100.00;99897.38;4970350;28;20101;-61
2021/12/31 01:15:43;;;;;;;46.35;18.98;;;;;;;-1.99;100.00;99887.19;4969660;28;20108;-63
2021/12/31 01:21:33;;;;;;;39.53;18.02;;;;;;;-2.14;100.00;99885.84;4970524;28;20077;-59
2021/12/31 01:24:22;;;;;;;42.70;18.10;;;;;;;-2.10;100.00;99887.69;4977543;28;20096;-66
2021/12/31 01:27:09;;;;;;;44.78;17.90;;;;;;;-2.12;100.00;99895.44;5005838;28;20552;-64
2021/12/31 01:29:54;;;;;;;42.95;18.58;;;;;;;-2.11;100.00;99878.13;5001060;28;20144;-65
2021/12/31 01:32:41;;;;;;;40.45;17.10;;;;;;;-1.98;100.00;99882.88;5005650;28;20084;-64
2021/12/31 01:35:26;;;;;;;40.38;17.98;;;;;;;-2.07;100.00;99882.56;5005880;28;20124;-61
2021/12/31 01:38:11;;;;;;;37.95;16.48;;;;;;;-2.15;100.00;99881.44;4990992;28;20444;-63
2021/12/31 01:40:57;;;;;;;41.88;17.17;;;;;;;-2.32;100.00;99893.03;5008068;28;20053;-63
2021/12/31 01:43:42;;;;;;;38.45;16.80;;;;;;;-2.24;100.00;99882.06;5003952;28;20053;-63
2021/12/31 01:46:27;;;;;;;41.60;17.45;;;;;;;-2.00;100.00;99874.16;5004923;28;20072;-64
2021/12/31 01:49:19;;;;;;;38.63;17.15;;;;;;;-2.15;100.00;99861.56;4991074;28;20147;-62
2021/12/31 01:52:08;;;;;;;40.40;16.40;;;;;;;-2.25;100.00;99843.94;4977270;28;20048;-64
2021/12/31 01:54:53;;;;;;;40.45;17.73;;;;;;;-2.05;100.00;99863.59;4978644;28;20525;-63
2021/12/31 01:57:40;;;;;;;43.03;18.00;;;;;;;-2.10;100.00;99866.91;5008126;28;20422;-63
2021/12/31 02:00:25;;;;;;;41.30;17.58;;;;;;;-2.15;100.00;99855.47;4994526;28;20052;-63
2021/12/31 02:03:11;;;;;;;42.10;17.48;;;;;;;-2.38;100.00;99867.75;4997267;28;20846;-63
2021/12/31 02:05:55;;;;;;;37.28;17.02;;;;;;;-2.17;100.00;99865.81;4995863;28;20072;-61
2021/12/31 02:08:40;;;;;;;42.00;17.02;;;;;;;-2.08;100.00;99871.31;4990726;28;20168;-64
2021/12/31 02:11:25;;;;;;;42.22;16.95;;;;;;;-2.14;100.00;99871.13;4992451;28;20101;-66
2021/12/31 02:14:10;;;;;;;38.80;17.52;;;;;;;-1.93;100.00;99868.31;4997399;28;20045;-65
2021/12/31 02:16:55;;;;;;;41.45;17.88;;;;;;;-1.84;100.00;99858.19;5007168;28;20056;-64
2021/12/31 02:19:43;;;;;;;41.72;18.15;;;;;;;-2.01;100.00;99851.63;4995491;28;20132;-63
2021/12/31 02:22:28;;;;;;;40.13;17.13;;;;;;;-1.90;100.00;99852.81;4997566;28;20057;-62
2021/12/31 02:25:13;;;;;;;42.42;17.90;;;;;;;-1.90;100.00;99825.09;4994698;28;20143;-65
2021/12/31 02:27:59;;;;;;;38.05;17.45;;;;;;;-1.87;100.00;99835.59;5007712;28;20081;-63
2021/12/31 02:30:44;;;;;;;38.33;17.65;;;;;;;-2.01;100.00;99834.28;5001982;28;20096;-62
2021/12/31 02:33:32;;;;;;;44.40;18.10;;;;;;;-1.96;100.00;99831.84;5010403;28;20084;-63
2021/12/31 02:36:19;;;;;;;40.15;17.33;;;;;;;-1.74;100.00;99832.50;5009119;28;20452;-61
2021/12/31 02:39:05;;;;;;;43.70;17.05;;;;;;;-1.61;100.00;99825.97;5009070;28;20192;-65
2021/12/31 02:41:50;;;;;;;47.42;17.77;;;;;;;-1.48;100.00;99825.47;5008594;28;20053;-63
2021/12/31 02:44:38;;;;;;;39.78;17.30;;;;;;;-1.43;100.00;99829.06;4965894;28;20088;-66
2021/12/31 02:47:25;;;;;;;40.75;17.92;;;;;;;-1.34;100.00;99826.75;4997178;28;20080;-62
2021/12/31 02:50:16;;;;;;;36.95;17.17;;;;;;;-1.62;100.00;99816.41;5008535;28;20168;-63
2021/12/31 02:53:10;;;;;;;38.05;17.40;;;;;;;-1.69;100.00;99812.75;5009220;28;20143;-62
2021/12/31 02:56:02;;;;;;;42.47;18.33;;;;;;;-1.58;100.00;99819.13;4998398;28;20056;-65
2021/12/31 02:58:47;;;;;;;38.55;17.15;;;;;;;-1.57;100.00;99813.13;5007131;28;20104;-63
2021/12/31 03:01:32;;;;;;;40.50;17.75;;;;;;;-1.73;100.00;99797.91;5008120;28;20057;-64
2021/12/31 03:04:19;;;;;;;40.40;17.48;;;;;;;-1.74;100.00;99810.88;5001931;28;20068;-63
2021/12/31 03:07:06;;;;;;;40.63;17.27;;;;;;;-1.76;100.00;99800.44;5004793;28;20069;-63
2021/12/31 03:09:52;;;;;;;41.55;17.58;;;;;;;-1.71;100.00;99797.94;5002409;28;20054;-62
2021/12/31 03:12:42;;;;;;;42.17;17.63;;;;;;;-1.75;100.00;99789.19;5000632;28;20903;-64
2021/12/31 03:15:27;;;;;;;44.45;18.65;;;;;;;-1.77;100.00;99792.56;4994841;28;20115;-63
2021/12/31 03:18:15;;;;;;;43.92;18.13;;;;;;;-1.70;100.00;99782.38;4993662;28;20061;-63
2021/12/31 03:21:20;;;;;;;39.70;17.02;;;;;;;-1.86;100.00;99785.38;5006659;28;20071;-63
2021/12/31 03:24:05;;;;;;;37.50;16.05;;;;;;;-1.77;100.00;99775.28;4996491;28;20114;-67
2021/12/31 03:26:51;;;;;;;35.08;15.13;;;;;;;-1.61;100.00;99773.97;4974109;28;20485;-64
2021/12/31 03:29:36;;;;;;;34.08;15.90;;;;;;;-1.81;100.00;99767.34;4986886;28;20148;-64
2021/12/31 03:32:20;;;;;;;33.97;15.23;;;;;;;-1.74;100.00;99770.16;4986814;28;20061;-62
2021/12/31 03:35:06;;;;;;;35.28;15.55;;;;;;;-1.70;100.00;99771.13;4986912;28;20112;-61
2021/12/31 03:37:50;;;;;;;33.22;16.13;;;;;;;-2.06;100.00;99763.16;4988129;28;20060;-63
2021/12/31 03:40:35;;;;;;;36.47;15.02;;;;;;;-2.16;100.00;99771.53;4975871;28;20072;-63
2021/12/31 03:43:20;;;;;;;36.63;16.13;;;;;;;-2.07;100.00;99756.19;4986399;28;20578;-64
2021/12/31 03:46:04;;;;;;;36.38;15.65;;;;;;;-2.09;100.00;99763.06;4988413;28;20092;-62
2021/12/31 03:48:49;;;;;;;34.97;15.73;;;;;;;-1.89;100.00;99751.56;4971193;28;20053;-61
2021/12/31 03:51:33;;;;;;;31.00;14.55;;;;;;;-1.94;100.00;99754.84;4997413;28;20057;-62
2021/12/31 03:54:18;;;;;;;32.83;15.27;;;;;;;-1.98;100.00;99753.00;4987946;28;20249;-62
2021/12/31 03:57:03;;;;;;;36.50;16.27;;;;;;;-2.02;100.00;99753.75;4984575;28;20100;-64
2021/12/31 03:59:48;;;;;;;35.53;15.55;;;;;;;-2.12;100.00;99749.09;4985433;28;20133;-64
2021/12/31 04:02:35;;;;;;;37.65;16.90;;;;;;;-2.31;100.00;99752.88;4978243;28;20053;-67
2021/12/31 04:05:19;;;;;;;39.72;17.08;;;;;;;-2.18;100.00;99747.22;4985971;28;20577;-65
2021/12/31 04:08:05;;;;;;;35.08;15.68;;;;;;;-2.15;100.00;99736.91;4986080;28;20525;-71
2021/12/31 04:10:50;;;;;;;35.35;16.42;;;;;;;-1.94;100.00;99737.53;4982733;28;20042;-66
2021/12/31 04:13:35;;;;;;;;;;;;;;;-2.18;100.00;99743.75;4995785;28;20048;-65
2021/12/31 04:16:20;;;;;;;42.95;17.73;;;;;;;-2.22;100.00;99736.72;4985888;28;19960;-64
2021/12/31 04:19:04;;;;;;;37.90;16.10;;;;;;;-2.20;100.00;99735.91;4973732;28;20116;-64
2021/12/31 04:21:50;;;;;;;42.00;17.00;;;;;;;-1.95;100.00;99740.97;4967093;28;20472;-65
2021/12/31 04:24:52;;;;;;;38.50;16.83;;;;;;;-1.82;100.00;99734.41;4993115;28;20131;-65
2021/12/31 04:27:38;;;;;;;38.38;16.48;;;;;;;-1.88;100.00;99719.53;5014842;28;20046;-65
2021/12/31 04:30:23;;;;;;;39.75;17.38;;;;;;;-1.90;100.00;99716.00;4999587;28;20082;-68
2021/12/31 04:33:08;;;;;;;57.30;23.35;;;;;;;-2.03;100.00;99710.41;4989006;28;20052;-64
2021/12/31 04:35:53;;;;;;;;;;;;;;;-1.82;100.00;99714.50;4999674;28;20047;-64
2021/12/31 04:38:38;;;;;;;63.08;25.48;;;;;;;-1.93;100.00;99710.69;5011615;28;19928;-65
2021/12/31 04:41:25;;;;;;;70.65;27.35;;;;;;;-1.95;100.00;99706.31;4991239;28;20054;-65
2021/12/31 04:44:10;;;;;;;61.35;26.40;;;;;;;-1.86;100.00;99701.38;4980575;28;20064;-68
2021/12/31 04:46:54;;;;;;;46.67;19.88;;;;;;;-1.80;100.00;99699.84;5004448;28;20080;-67
2021/12/31 04:49:39;;;;;;;42.80;18.75;;;;;;;-1.82;100.00;99696.31;5007984;28;20539;-66
2021/12/31 04:52:24;;;;;;;35.80;15.63;;;;;;;-1.80;100.00;99709.34;5000466;28;20048;-65
2021/12/31 04:55:10;;;;;;;36.92;16.13;;;;;;;-1.76;100.00;99711.19;4976935;28;20053;-63
2021/12/31 04:57:56;;;;;;;37.78;15.73;;;;;;;-1.82;100.00;99698.91;4981410;28;20148;-64
2021/12/31 05:00:40;;;;;;;;;;;;;;;-1.68;100.00;99696.69;5011521;28;20060;-67
2021/12/31 05:03:25;;;;;;;35.72;15.63;;;;;;;-1.83;100.00;99696.25;4997716;28;19924;-65
2021/12/31 05:06:10;;;;;;;39.25;16.45;;;;;;;-1.76;100.00;99709.47;5014521;28;20080;-66
2021/12/31 05:08:54;;;;;;;34.00;16.02;;;;;;;-1.93;100.00;99710.69;5009751;28;20556;-68
2021/12/31 05:11:39;;;;;;;37.85;15.82;;;;;;;-2.12;100.00;99690.28;5010713;28;20425;-65
2021/12/31 05:14:24;;;;;;;37.97;15.60;;;;;;;-2.11;100.00;99701.53;5008891;28;20075;-65
2021/12/31 05:17:09;;;;;;;34.67;15.13;;;;;;;-2.33;100.00;99697.41;5000271;28;20133;-64
2021/12/31 05:19:54;;;;;;;37.58;16.02;;;;;;;-2.24;100.00;99702.00;5011923;28;20143;-66
2021/12/31 05:22:39;;;;;;;33.75;15.95;;;;;;;-2.33;100.00;99697.41;4996280;28;20056;-66
2021/12/31 05:25:24;;;;;;;38.20;17.00;;;;;;;-2.25;100.00;99710.66;4998842;28;20065;-70
2021/12/31 05:28:09;;;;;;;39.20;16.55;;;;;;;-2.26;100.00;99691.56;5003476;28;20056;-66
2021/12/31 05:30:54;;;;;;;36.05;15.70;;;;;;;-2.03;100.00;99705.22;4976035;28;20144;-65
2021/12/31 05:33:38;;;;;;;35.78;15.63;;;;;;;-2.19;100.00;99709.09;5003832;28;20426;-63
2021/12/31 05:36:23;;;;;;;;;;;;;;;-2.19;100.00;99701.31;4991283;28;20049;-65
2021/12/31 05:39:10;;;;;;;35.35;15.93;;;;;;;-2.14;100.00;99706.66;4977786;28;19924;-64
2021/12/31 05:41:54;;;;;;;34.83;16.25;;;;;;;-2.05;100.00;99699.97;5002239;28;20069;-64
2021/12/31 05:44:40;;;;;;;;;;;;;;;-1.82;100.00;99698.03;5006784;28;20080;-63
2021/12/31 05:47:25;;;;;;;36.95;15.95;;;;;;;-1.98;100.00;99691.53;5006017;28;20024;-69
2021/12/31 05:50:19;;;;;;;37.85;17.08;;;;;;;-1.99;100.00;99694.06;5009381;28;20044;-70
2021/12/31 05:53:04;;;;;;;41.50;17.48;;;;;;;-1.79;100.00;99685.09;5023665;28;20118;-68
2021/12/31 05:55:49;;;;;;;39.30;17.08;;;;;;;-1.61;100.00;99681.31;5025033;28;20137;-66
2021/12/31 05:58:34;;;;;;;38.70;17.02;;;;;;;-1.59;100.00;99689.13;4992466;28;20410;-64
2021/12/31 06:01:19;;;;;;;41.13;17.05;;;;;;;-1.60;100.00;99685.66;5009976;28;20064;-65
2021/12/31 06:04:04;;;;;;;41.22;17.50;;;;;;;-1.49;100.00;99672.94;5021826;28;20579;-72
2021/12/31 06:06:49;;;;;;;37.80;16.60;;;;;;;-1.51;100.00;99670.28;4987963;28;20104;-64
2021/12/31 06:09:34;;;;;;;40.47;16.73;;;;;;;-1.57;100.00;99677.94;4989325;28;20464;-65
2021/12/31 06:12:19;;;;;;;39.58;17.02;;;;;;;-1.76;100.00;99673.09;5004626;28;20111;-65
2021/12/31 06:15:08;;;;;;;34.78;15.57;;;;;;;-1.76;100.00;99667.00;5003583;28;20060;-69
2021/12/31 06:17:54;;;;;;;36.55;16.35;;;;;;;-1.60;100.00;99666.56;5006826;28;20049;-68
2021/12/31 06:20:42;;;;;;;33.88;15.63;;;;;;;-1.63;100.00;99658.69;4988782;28;20123;-63
2021/12/31 06:23:28;;;;;;;35.60;15.73;;;;;;;-1.53;100.00;99651.19;4999397;28;20104;-71
2021/12/31 06:26:14;;;;;;;34.55;16.13;;;;;;;-1.53;100.00;99658.09;4970504;28;20053;-72
2021/12/31 06:28:59;;;;;;;41.05;16.38;;;;;;;-1.83;100.00;99650.38;4997375;28;20120;-71
2021/12/31 06:31:44;;;;;;;36.20;15.63;;;;;;;-1.83;100.00;99658.19;4970802;28;20052;-67
2021/12/31 06:34:30;;;;;;;34.53;16.23;;;;;;;-2.02;100.00;99661.09;4983550;28;20049;-72
2021/12/31 06:37:15;;;;;;;36.88;16.67;;;;;;;-2.35;100.00;99664.47;4983513;28;20150;-70
2021/12/31 06:40:04;;;;;;;35.85;16.05;;;;;;;-2.13;100.00;99659.91;4983877;28;20402;-70
2021/12/31 06:45:14;;;;;;;40.13;16.35;;;;;;;-1.86;100.00;99662.41;4983658;28;20129;-75
2021/12/31 06:47:59;;;;;;;38.17;16.58;;;;;;;-1.62;100.00;99663.94;4989356;28;20524;-77
2021/12/31 06:50:44;;;;;;;39.55;18.02;;;;;;;-1.45;100.00;99660.06;4959652;28;20065;-66
2021/12/31 06:53:49;;;;;;;62.90;22.95;;;;;;;-1.51;100.00;99667.69;4999969;28;20053;-64
2021/12/31 06:56:35;;;;;;;57.93;23.07;;;;;;;-1.84;100.00;99652.94;4966108;28;20145;-72
2021/12/31 06:59:20;;;;;;;52.17;21.10;;;;;;;-2.06;100.00;99658.41;4965782;28;20053;-69
2021/12/31 07:02:05;;;;;;;52.72;22.33;;;;;;;-1.81;100.00;99659.13;4962068;28;20090;-68
2021/12/31 07:04:53;;;;;;;53.47;22.55;;;;;;;-1.60;100.00;99656.19;4965262;28;20186;-67
2021/12/31 07:07:37;;;;;;;61.22;26.65;;;;;;;-1.67;100.00;99652.53;4964110;28;20058;-67
2021/12/31 07:10:22;;;;;;;;;;;;;;;-1.51;100.00;99641.69;4966783;28;20138;-65
2021/12/31 07:13:11;;;;;;;43.60;19.00;;;;;;;-1.54;100.00;99638.16;4965221;28;19929;-63
2021/12/31 07:15:55;;;;;;;37.55;17.70;;;;;;;-1.45;100.00;99644.47;4952472;28;20696;-66
2021/12/31 07:18:40;;;;;;;36.40;16.80;;;;;;;-1.24;100.00;99647.59;4965661;28;20174;-64
2021/12/31 07:21:25;;;;;;;32.30;14.68;;;;;;;-1.13;100.00;99640.03;4965989;28;20049;-67
2021/12/31 07:24:10;;;;;;;30.55;14.30;;;;;;;-1.12;100.00;99647.00;4977089;28;20069;-64
2021/12/31 07:26:55;;;;;;;29.08;13.55;;;;;;;-0.97;100.00;99640.44;4983570;28;20096;-63
2021/12/31 07:29:39;;;;;;;;;;;;;;;-0.78;100.00;99633.94;4987613;28;20141;-63
2021/12/31 07:32:24;;;;;;;37.08;15.32;;;;;;;-1.02;100.00;99626.41;4986554;28;19982;-63
2021/12/31 07:35:09;;;;;;;;;;;;;;;-0.98;100.00;99628.25;4973623;28;20069;-63
2021/12/31 07:37:56;;;;;;;31.83;14.10;;;;;;;-1.11;100.00;99621.00;4988755;28;20403;-63
2021/12/31 07:40:42;;;;;;;33.42;14.70;;;;;;;-0.94;100.00;99629.22;4987150;28;20116;-75
2021/12/31 07:43:27;;;;;;;33.60;14.32;;;;;;;-0.88;100.00;99618.94;4972517;28;20076;-65
2021/12/31 07:46:13;;;;;;;30.63;14.65;;;;;;;-0.66;100.00;99613.38;4982636;28;20041;-67
2021/12/31 07:48:58;;;;;;;32.78;13.40;;;;;;;-0.91;100.00;99614.53;4985316;28;20057;-67
2021/12/31 07:51:43;;;;;;;28.27;14.23;;;;;;;-0.73;100.00;99604.56;4992458;28;20053;-66
2021/12/31 07:54:28;;;;;;;34.40;15.20;;;;;;;-0.68;100.00;99602.03;4999433;28;20056;-66
2021/12/31 07:57:12;;;;;;;34.53;15.45;;;;;;;-0.75;100.00;99601.03;4971209;28;20053;-67
2021/12/31 07:59:57;;;;;;;31.38;14.82;;;;;;;-0.79;100.00;99604.41;4984061;28;20121;-69
2021/12/31 08:02:42;;;;;;;;;;;;;;;-0.77;100.00;99592.31;4998317;28;20048;-67
2021/12/31 08:05:28;;;;;;;31.33;15.15;;;;;;;-0.56;100.00;99597.09;4971931;28;20412;-66
2021/12/31 08:08:14;;;;;;;34.67;15.45;;;;;;;-0.66;100.00;99593.41;4996477;28;20203;-66
2021/12/31 08:11:00;;;;;;;34.42;15.50;;;;;;;-0.71;100.00;99589.84;4994646;28;20861;-66
2021/12/31 08:13:46;;;;;;;34.42;15.50;;;;;;;-0.73;100.00;99588.03;4973686;28;20124;-65
2021/12/31 08:16:31;;;;;;;35.78;15.20;;;;;;;-0.73;100.00;99582.84;4976016;28;20140;-64
2021/12/31 08:19:15;;;;;;;35.10;15.65;;;;;;;-0.53;100.00;99582.41;4983706;28;20141;-68
2021/12/31 08:22:00;;;;;;;28.77;13.85;;;;;;;-0.47;100.00;99579.06;4975382;28;20133;-64
2021/12/31 08:24:45;;;;;;;31.38;14.93;;;;;;;-0.76;100.00;99568.03;4978807;28;20470;-65
2021/12/31 08:27:30;;;;;;;30.75;14.55;;;;;;;-0.66;100.00;99553.50;4971682;28;20112;-66
2021/12/31 08:30:14;;;;;;;33.60;14.65;;;;;;;-0.48;100.00;99566.88;4971658;28;20106;-65
2021/12/31 08:32:59;;;;;;;33.03;15.25;;;;;;;-0.36;100.00;99547.16;4986259;28;20434;-68
2021/12/31 08:35:43;;;;;;;33.35;14.30;;;;;;;-0.39;100.00;99552.31;4987053;28;20049;-64
2021/12/31 08:38:28;;;;;;;35.95;14.65;;;;;;;-0.49;100.00;99545.19;4968440;28;20096;-67
2021/12/31 08:41:13;;;;;;;31.58;14.65;;;;;;;-0.73;100.00;99536.88;4985795;28;20060;-66
2021/12/31 08:43:58;;;;;;;38.08;16.63;;;;;;;-0.73;100.00;99529.06;4971294;28;20053;-67
2021/12/31 08:46:45;;;;;;;35.95;16.02;;;;;;;-0.72;100.00;99527.31;4985593;28;20111;-65
2021/12/31 08:49:30;;;;;;;36.25;14.80;;;;;;;-0.46;100.00;99520.94;4983733;28;20777;-65
2021/12/31 08:52:16;;;;;;;35.70;15.52;;;;;;;-0.18;100.00;99521.47;4986932;28;20068;-64
2021/12/31 08:55:01;;;;;;;32.58;14.63;;;;;;;-0.51;100.00;99522.56;4971948;28;20069;-64
2021/12/31 08:57:47;;;;;;;32.67;14.95;;;;;;;-0.47;100.00;99519.19;4969034;28;20161;-65
2021/12/31 09:00:32;;;;;;;32.85;14.88;;;;;;;-0.45;100.00;99520.97;4986038;28;20054;-65
2021/12/31 09:03:17;;;;;;;35.75;15.82;;;;;;;-0.73;100.00;99513.47;4985194;28;20053;-66
2021/12/31 09:06:02;;;;;;;35.17;16.17;;;;;;;-0.70;100.00;99508.28;4971188;28;20097;-70
2021/12/31 09:08:48;;;;;;;33.88;16.17;;;;;;;-0.46;100.00;99515.72;4954923;28;20045;-65
2021/12/31 09:11:35;;;;;;;35.15;15.55;;;;;;;-0.22;100.00;99516.19;4993169;28;20081;-65
2021/12/31 09:14:21;;;;;;;35.50;16.65;;;;;;;-0.56;100.00;99506.84;4983329;28;20521;-65
2021/12/31 09:17:06;;;;;;;38.92;16.60;;;;;;;-0.92;100.00;99500.03;4962596;28;20053;-67
2021/12/31 09:19:51;;;;;;;34.08;16.45;;;;;;;-0.77;100.00;99495.13;4985065;28;20537;-65
2021/12/31 09:22:36;;;;;;;37.08;16.70;;;;;;;-0.77;100.00;99509.03;4985431;28;20464;-62
2021/12/31 09:25:21;;;;;;;32.25;15.43;;;;;;;-0.74;100.00;99490.00;4985494;28;20061;-64
2021/12/31 09:28:06;;;;;;;33.78;15.02;;;;;;;-1.00;100.00;99492.06;4985083;28;20584;-68
2021/12/31 09:30:51;;;;;;;31.73;14.27;;;;;;;-1.06;100.00;99491.94;4969577;28;20520;-70
2021/12/31 09:33:36;;;;;;;28.58;13.77;;;;;;;-1.04;100.00;99495.44;4970076;28;20125;-67
2021/12/31 09:36:21;;;;;;;31.80;14.55;;;;;;;-1.07;100.00;99497.13;4965782;28;20057;-67
2021/12/31 09:39:06;;;;;;;26.67;12.38;;;;;;;-1.04;100.00;99489.34;4975080;28;20105;-62
2021/12/31 09:44:28;;;;;;;28.95;12.43;;;;;;;-1.54;100.00;99484.78;4974405;28;20062;-61
2021/12/31 09:47:24;;;;;;;30.75;13.55;;;;;;;-1.26;100.00;99481.97;4977245;28;20092;-61
2021/12/31 09:52:45;;;;;;;35.33;15.65;;;;;;;-1.02;100.00;99472.06;4985411;28;20070;-66
2021/12/31 09:55:36;;;;;;;30.67;13.80;;;;;;;-0.79;100.00;99465.63;4983290;28;20450;-65
2021/12/31 09:58:24;;;;;;;29.58;13.52;;;;;;;-0.75;100.00;99468.28;4962272;28;20057;-64
2021/12/31 10:01:10;;;;;;;30.27;12.88;;;;;;;-0.65;100.00;99457.22;4985328;28;20108;-66
2021/12/31 10:03:57;;;;;;;31.17;13.90;;;;;;;-0.76;100.00;99457.84;4965819;28;20530;-65
2021/12/31 10:07:05;;;;;;;34.10;14.65;;;;;;;-0.69;100.00;99438.91;4958050;28;20081;-65
2021/12/31 10:10:13;;;;;;;36.15;15.30;;;;;;;-0.48;100.00;99441.88;4968753;28;20052;-67
2021/12/31 10:12:58;;;;;;;32.97;14.70;;;;;;;-0.60;100.00;99439.94;4985259;28;20081;-66
2021/12/31 10:15:49;;;;;;;27.77;12.80;;;;;;;-0.72;100.00;99431.91;4982280;28;20469;-71
2021/12/31 10:18:37;;;;;;;28.17;12.88;;;;;;;-0.72;100.00;99424.09;4961138;28;20426;-65
2021/12/31 10:21:38;;;;;;;28.02;13.40;;;;;;;-0.55;100.00;99419.22;4969773;28;20056;-64
2021/12/31 10:24:26;;;;;;;27.40;12.88;;;;;;;-0.54;100.00;99431.38;4980248;28;20061;-65
2021/12/31 10:27:14;;;;;;;25.85;11.48;;;;;;;-0.42;100.00;99423.78;4985946;28;20065;-61
2021/12/31 10:30:23;;;;;;;28.50;13.45;;;;;;;-0.60;100.00;99420.84;5005240;28;20056;-66
2021/12/31 10:33:09;;;;;;;30.27;14.02;;;;;;;-0.60;100.00;99419.13;4996297;28;20153;-67
2021/12/31 10:35:54;;;;;;;26.30;11.63;;;;;;;-0.80;100.00;99415.28;5008281;28;20068;-67
2021/12/31 10:38:43;;;;;;;32.70;13.90;;;;;;;-0.78;100.00;99423.97;4993901;28;20509;-68
2021/12/31 10:41:30;;;;;;;31.58;13.57;;;;;;;-0.61;100.00;99421.69;5004386;28;20161;-66
2021/12/31 10:44:15;;;;;;;30.92;13.32;;;;;;;-0.72;100.00;99423.22;4989855;28;20385;-70
2021/12/31 10:47:19;;;;;;;30.95;15.02;;;;;;;-0.57;100.00;99411.38;5007731;28;20052;-76
2021/12/31 10:50:08;;;;;;;31.33;13.52;;;;;;;-0.79;100.00;99419.63;4981410;28;20048;-71
2021/12/31 10:53:11;;;;;;;27.67;13.23;;;;;;;-0.76;100.00;99408.41;5009569;28;20053;-66
2021/12/31 10:56:06;;;;;;;34.03;14.13;;;;;;;-1.04;100.00;99409.59;5009150;28;20103;-66
2021/12/31 10:58:58;;;;;;;29.15;13.52;;;;;;;-1.03;100.00;99402.69;5009094;28;20767;-66
2021/12/31 11:01:44;;;;;;;28.35;12.57;;;;;;;-1.23;100.00;99409.22;4991006;28;20547;-70
2021/12/31 11:04:31;;;;;;;32.72;13.50;;;;;;;-1.34;100.00;99388.16;5007910;28;20080;-70
2021/12/31 11:07:17;;;;;;;28.00;12.52;;;;;;;-1.43;100.00;99394.91;4979354;28;20057;-64
2021/12/31 11:10:04;;;;;;;29.15;13.68;;;;;;;-1.50;100.00;99406.91;5009423;28;20053;-65
2021/12/31 11:12:50;;;;;;;34.95;14.23;;;;;;;-1.45;100.00;99387.09;4981244;28;20099;-64
2021/12/31 11:15:35;;;;;;;34.30;14.30;;;;;;;-1.50;100.00;99393.03;4998391;28;20102;-67
2021/12/31 11:18:25;;;;;;;29.58;12.98;;;;;;;-1.28;100.00;99383.13;5003696;28;20176;-68
2021/12/31 11:21:12;;;;;;;32.15;13.23;;;;;;;-1.09;100.00;99384.34;5003916;28;20099;-65
2021/12/31 11:24:31;;;;;;;30.30;12.63;;;;;;;-1.19;100.00;99367.69;4999963;28;20061;-66
2021/12/31 11:27:31;;;;;;;34.30;13.57;;;;;;;-0.95;100.00;99370.75;4976920;28;20093;-65
2021/12/31 11:30:39;;;;;;;29.65;12.80;;;;;;;-1.21;100.00;99369.41;4989394;28;20085;-68
2021/12/31 11:33:31;;;;;;;33.47;13.38;;;;;;;-1.07;100.00;99365.31;4985800;28;20057;-67
2021/12/31 11:36:16;;;;;;;29.05;12.95;;;;;;;-1.31;100.00;99367.44;4955905;28;20133;-66
2021/12/31 11:39:14;;;;;;;31.45;12.73;;;;;;;-1.07;100.00;99357.50;4973460;28;20112;-65
2021/12/31 11:42:01;;;;;;;29.98;12.73;;;;;;;-1.13;100.00;99364.31;4986246;28;20057;-67
2021/12/31 11:45:05;;;;;;;31.42;12.93;;;;;;;-0.91;100.00;99359.56;5000317;28;20233;-69
2021/12/31 11:47:50;;;;;;;32.35;12.93;;;;;;;-0.97;100.00;99351.66;4979524;28;20531;-62
2021/12/31 11:50:35;;;;;;;31.73;13.30;;;;;;;-0.92;100.00;99344.81;4974313;28;20076;-66
2021/12/31 11:53:20;;;;;;;33.45;14.43;;;;;;;-1.03;100.00;99343.72;4999314;28;20395;-68
2021/12/31 11:56:05;;;;;;;34.20;13.90;;;;;;;-1.01;100.00;99341.16;4991150;28;20534;-77
2021/12/31 11:58:50;;;;;;;32.95;13.80;;;;;;;-1.11;100.00;99345.31;4969186;28;20182;-65
2021/12/31 12:01:46;;;;;;;35.05;13.48;;;;;;;-1.11;100.00;99332.28;4980689;28;20047;-67
2021/12/31 12:04:41;;;;;;;34.22;13.40;;;;;;;-1.35;100.00;99329.22;4960672;28;20093;-66
2021/12/31 12:07:33;;;;;;;35.85;14.80;;;;;;;-1.17;100.00;99321.78;4980397;28;20049;-68
2021/12/31 12:10:21;;;;;;;38.65;15.05;;;;;;;-1.33;100.00;99314.56;4983851;28;20093;-68
2021/12/31 12:13:25;;;;;;;41.47;15.82;;;;;;;-1.22;100.00;99318.19;4986429;28;20052;-71
2021/12/31 12:16:51;;;;;;;43.63;16.63;;;;;;;-1.04;100.00;99317.66;4966256;28;20576;-72
2021/12/31 12:19:51;;;;;;;41.50;15.80;;;;;;;-1.00;100.00;99306.47;4971053;28;20057;-68
2021/12/31 12:22:40;;;;;;;41.88;16.40;;;;;;;-1.19;100.00;99300.06;4989729;28;20081;-65
2021/12/31 12:25:27;;;;;;;36.97;15.93;;;;;;;-1.26;100.00;99300.78;4987231;28;20049;-62
2021/12/31 12:28:14;;;;;;;49.55;19.25;;;;;;;-1.25;100.00;99299.97;4984725;28;20097;-63
2021/12/31 12:31:05;;;;;;;53.88;20.00;;;;;;;-1.51;100.00;99293.38;4991254;28;20096;-61
2021/12/31 12:40:19;;;;;;;50.65;20.50;;;;;;;-1.23;100.00;99293.06;2655176;23;20101;-76
2021/12/31 12:43:12;;;;;;;46.10;19.55;;;;;;;-1.38;100.00;99284.97;5049664;28;20531;-63
2021/12/31 12:46:04;;;;;;;50.38;20.45;;;;;;;-1.46;100.00;99288.28;5049920;28;20071;-67
2021/12/31 12:48:51;;;;;;;51.67;19.95;;;;;;;-1.10;100.00;99274.22;5068973;28;20059;-68
2021/12/31 12:51:37;;;;;;;47.60;18.35;;;;;;;-1.07;100.00;99283.81;5073584;28;20066;-63
2021/12/31 12:54:24;;;;;;;44.88;17.45;;;;;;;-0.86;100.00;99277.25;5052104;28;20086;-63
2021/12/31 12:57:08;;;;;;;43.33;17.17;;;;;;;-0.88;100.00;99276.34;5083033;28;20137;-64
2021/12/31 12:59:53;;;;;;;40.40;16.80;;;;;;;-0.98;100.00;99268.38;5066603;28;20120;-61